createdAt,value
2019-04-11T00:00:09.434Z,2.41
2019-04-11T00:01:10.109Z,2.46
2019-04-11T00:02:09.424Z,2.47
2019-04-11T00:03:09.424Z,2.51
2019-04-11T00:04:10.153Z,2.57
2019-04-11T00:05:10.554Z,2.57
2019-04-11T00:06:09.647Z,2.44
2019-04-11T00:07:09.373Z,2.40
2019-04-11T00:08:10.134Z,2.40
2019-04-11T00:09:10.237Z,2.37
2019-04-11T00:10:10.278Z,2.36
2019-04-11T00:11:09.500Z,2.33
2019-04-11T00:12:10.209Z,2.41
2019-04-11T00:13:18.870Z,2.41
2019-04-11T00:14:10.285Z,2.43
2019-04-11T00:15:10.390Z,2.43
2019-04-11T00:16:09.256Z,2.40
2019-04-11T00:17:09.980Z,2.46
2019-04-11T00:18:10.321Z,2.37
2019-04-11T00:19:09.452Z,2.39
2019-04-11T00:20:09.688Z,2.28
2019-04-11T00:21:09.206Z,2.28
2019-04-11T00:22:09.197Z,2.23
2019-04-11T00:23:10.134Z,2.22
2019-04-11T00:24:10.321Z,2.25
2019-04-11T00:25:09.485Z,2.23
2019-04-11T00:26:09.151Z,2.26
2019-04-11T00:27:09.161Z,2.22
2019-04-11T00:28:09.859Z,2.23
2019-04-11T00:29:10.093Z,2.14
2019-04-11T00:30:10.116Z,2.07
2019-04-11T00:31:09.117Z,2.12
2019-04-11T00:32:10.656Z,2.10
2019-04-11T00:33:09.821Z,2.07
2019-04-11T00:34:09.071Z,1.98
2019-04-11T00:35:09.258Z,1.97
2019-04-11T00:36:10.080Z,2.08
2019-04-11T00:37:09.076Z,1.98
2019-04-11T00:38:09.816Z,2.00
2019-04-11T00:39:09.026Z,1.97
2019-04-11T00:40:09.079Z,1.98
2019-04-11T00:41:09.980Z,1.97
2019-04-11T00:42:08.983Z,1.97
2019-04-11T00:43:09.421Z,2.01
2019-04-11T00:44:08.952Z,1.95
2019-04-11T00:45:09.567Z,1.98
2019-04-11T00:46:09.922Z,2.00
2019-04-11T00:47:08.966Z,2.07
2019-04-11T00:48:09.244Z,2.08
2019-04-11T00:49:08.909Z,2.07
2019-04-11T00:50:08.902Z,2.10
2019-04-11T00:51:09.836Z,2.05
2019-04-11T00:52:08.878Z,2.04
2019-04-11T00:53:09.783Z,1.97
2019-04-11T00:54:08.875Z,1.95
2019-04-11T00:55:08.852Z,1.98
2019-04-11T00:56:09.755Z,1.88
2019-04-11T00:57:08.829Z,2.05
2019-04-11T00:58:09.646Z,1.98
2019-04-11T00:59:09.825Z,1.98
2019-04-11T01:00:09.103Z,1.97
2019-04-11T01:01:09.367Z,1.89
2019-04-11T01:02:09.395Z,1.89
2019-04-11T01:03:09.721Z,1.84
2019-04-11T01:04:09.668Z,1.78
2019-04-11T01:05:09.597Z,1.74
2019-04-11T01:06:09.974Z,1.76
2019-04-11T01:07:08.904Z,1.75
2019-04-11T01:08:08.704Z,1.82
2019-04-11T01:09:10.005Z,1.79
2019-04-11T01:10:09.745Z,1.68
2019-04-11T01:11:09.811Z,1.64
2019-04-11T01:12:08.655Z,1.75
2019-04-11T01:13:09.224Z,1.84
2019-04-11T01:14:09.764Z,1.82
2019-04-11T01:15:08.641Z,1.92
2019-04-11T01:16:09.115Z,1.82
2019-04-11T01:17:09.431Z,1.81
2019-04-11T01:18:09.700Z,1.85
2019-04-11T01:19:08.786Z,1.75
2019-04-11T01:20:08.565Z,1.71
2019-04-11T01:21:08.592Z,1.74
2019-04-11T01:22:09.701Z,1.81
2019-04-11T01:23:08.947Z,1.79
2019-04-11T01:24:09.298Z,1.75
2019-04-11T01:25:08.522Z,1.76
2019-04-11T01:26:08.743Z,1.79
2019-04-11T01:27:09.731Z,1.84
2019-04-11T01:28:08.514Z,1.85
2019-04-11T01:29:09.256Z,1.85
2019-04-11T01:30:08.464Z,1.85
2019-04-11T01:31:09.471Z,1.84
2019-04-11T01:32:08.465Z,1.85
2019-04-11T01:33:08.438Z,1.66
2019-04-11T01:34:08.640Z,1.61
2019-04-11T01:35:08.919Z,1.66
2019-04-11T01:36:08.910Z,1.57
2019-04-11T01:37:09.244Z,1.61
2019-04-11T01:38:08.383Z,1.56
2019-04-11T01:39:08.519Z,1.57
2019-04-11T01:40:09.687Z,1.60
2019-04-11T01:41:08.383Z,1.53
2019-04-11T01:42:09.125Z,1.46
2019-04-11T01:43:08.347Z,1.49
2019-04-11T01:44:08.941Z,1.42
2019-04-11T01:45:09.409Z,1.43
2019-04-11T01:46:08.347Z,1.48
2019-04-11T01:47:08.738Z,1.46
2019-04-11T01:48:09.102Z,1.71
2019-04-11T01:49:08.266Z,1.58
2019-04-11T01:50:08.519Z,1.67
2019-04-11T01:51:09.605Z,1.64
2019-04-11T01:52:08.228Z,1.74
2019-04-11T01:53:08.932Z,1.75
2019-04-11T01:54:08.199Z,1.79
2019-04-11T01:55:08.319Z,1.76
2019-04-11T01:56:09.266Z,1.68
2019-04-11T01:57:08.177Z,1.60
2019-04-11T01:58:08.674Z,1.78
2019-04-11T01:59:08.156Z,1.74
2019-04-11T02:00:09.482Z,1.82
2019-04-11T02:01:08.385Z,1.79
2019-04-11T02:02:08.111Z,1.79
2019-04-11T02:03:08.846Z,1.79
2019-04-11T02:04:08.091Z,1.86
2019-04-11T02:05:08.403Z,1.84
2019-04-11T02:06:08.082Z,1.75
2019-04-11T02:07:08.079Z,1.71
2019-04-11T02:08:09.152Z,1.68
2019-04-11T02:09:08.147Z,1.76
2019-04-11T02:10:08.540Z,1.71
2019-04-11T02:11:08.245Z,1.75
2019-04-11T02:12:08.002Z,1.64
2019-04-11T02:13:08.012Z,1.86
2019-04-11T02:14:15.051Z,1.84
2019-04-11T02:15:10.185Z,1.71
2019-04-11T02:16:08.491Z,1.76
2019-04-11T02:17:08.528Z,1.78
2019-04-11T02:18:07.958Z,1.74
2019-04-11T02:19:08.007Z,1.63
2019-04-11T02:20:09.029Z,1.57
2019-04-11T02:21:07.929Z,1.57
2019-04-11T02:22:08.905Z,1.49
2019-04-11T02:23:07.888Z,1.53
2019-04-11T02:24:07.910Z,1.56
2019-04-11T02:25:08.124Z,1.43
2019-04-11T02:26:09.919Z,1.49
2019-04-11T02:27:08.545Z,1.52
2019-04-11T02:28:08.572Z,1.46
2019-04-11T02:29:08.940Z,1.46
2019-04-11T02:30:08.806Z,1.49
2019-04-11T02:31:10.139Z,1.46
2019-04-11T02:32:09.677Z,1.45
2019-04-11T02:33:10.000Z,1.46
2019-04-11T02:34:08.673Z,1.48
2019-04-11T02:35:08.677Z,1.45
2019-04-11T02:36:09.528Z,1.43
2019-04-11T02:37:09.280Z,1.48
2019-04-11T02:38:09.515Z,1.43
2019-04-11T02:39:12.112Z,1.49
2019-04-11T02:40:08.964Z,1.46
2019-04-11T02:41:08.570Z,1.43
2019-04-11T02:42:08.970Z,1.45
2019-04-11T02:43:09.322Z,1.48
2019-04-11T02:44:27.196Z,1.49
2019-04-11T02:45:22.489Z,1.45
2019-04-11T02:46:17.579Z,1.49
2019-04-11T02:47:15.803Z,1.58
2019-04-11T02:48:11.244Z,1.64
2019-04-11T02:49:08.127Z,1.50
2019-04-11T02:50:08.300Z,1.61
2019-04-11T02:51:07.704Z,1.56
2019-04-11T02:52:09.331Z,1.66
2019-04-11T02:53:09.255Z,1.63
2019-04-11T02:54:07.738Z,1.71
2019-04-11T02:55:10.097Z,1.74
2019-04-11T02:56:09.270Z,1.52
2019-04-11T02:57:07.923Z,1.71
2019-04-11T02:58:08.016Z,1.58
2019-04-11T02:59:09.007Z,1.64
2019-04-11T03:00:08.529Z,1.63
2019-04-11T03:01:09.661Z,1.71
2019-04-11T03:02:09.033Z,1.74
2019-04-11T03:03:08.483Z,1.66
2019-04-11T03:04:07.637Z,1.68
2019-04-11T03:05:09.289Z,1.64
2019-04-11T03:06:09.200Z,1.66
2019-04-11T03:07:08.039Z,1.63
2019-04-11T03:08:11.523Z,1.71
2019-04-11T03:09:08.395Z,1.58
2019-04-11T03:10:09.876Z,1.78
2019-04-11T03:11:08.213Z,1.67
2019-04-11T03:12:08.998Z,1.58
2019-04-11T03:13:08.397Z,1.76
2019-04-11T03:14:07.719Z,1.74
2019-04-11T03:15:23.961Z,1.61
2019-04-11T03:16:23.539Z,1.74
2019-04-11T03:17:16.965Z,1.74
2019-04-11T03:18:10.015Z,1.78
2019-04-11T03:19:22.563Z,1.76
2019-04-11T03:20:20.999Z,1.75
2019-04-11T03:21:13.798Z,1.84
2019-04-11T03:22:09.831Z,1.81
2019-04-11T03:23:09.863Z,1.82
2019-04-11T03:24:09.153Z,1.85
2019-04-11T03:25:08.479Z,1.85
2019-04-11T03:26:08.083Z,1.85
2019-04-11T03:27:09.262Z,1.86
2019-04-11T03:28:13.393Z,1.86
2019-04-11T03:29:09.132Z,1.81
2019-04-11T03:30:13.748Z,1.75
2019-04-11T03:31:41.660Z,1.82
2019-04-11T03:32:51.349Z,1.81
2019-04-11T03:35:59.968Z,1.85
2019-04-11T03:37:01.033Z,1.82
2019-04-11T03:37:37.988Z,1.82
2019-04-11T03:38:34.185Z,1.85
2019-04-11T03:39:27.728Z,1.81
2019-04-11T03:40:28.239Z,1.84
2019-04-11T03:41:23.577Z,1.86
2019-04-11T03:42:20.610Z,1.82
2019-04-11T03:43:23.056Z,1.82
2019-04-11T03:44:16.728Z,1.84
2019-04-11T03:45:40.102Z,1.81
2019-04-11T03:46:26.600Z,1.84
2019-04-11T03:47:20.617Z,1.82
2019-04-11T03:48:23.685Z,1.76
2019-04-11T03:49:24.058Z,1.78
2019-04-11T03:50:14.976Z,1.82
2019-04-11T03:51:08.836Z,1.88
2019-04-11T03:52:08.698Z,1.98
2019-04-11T03:53:09.361Z,1.88
2019-04-11T03:54:07.564Z,1.85
2019-04-11T03:55:08.654Z,1.92
2019-04-11T03:56:07.673Z,1.95
2019-04-11T03:57:07.834Z,1.84
2019-04-11T03:58:08.571Z,1.84
2019-04-11T03:59:10.311Z,1.79
2019-04-11T04:00:07.840Z,1.82
2019-04-11T04:01:10.572Z,1.86
2019-04-11T04:02:08.011Z,1.86
2019-04-11T04:03:08.941Z,1.88
2019-04-11T04:04:06.847Z,1.92
2019-04-11T04:05:08.865Z,1.82
2019-04-11T04:06:08.752Z,1.88
2019-04-11T04:07:07.317Z,1.93
2019-04-11T04:08:06.808Z,1.95
2019-04-11T04:09:06.741Z,1.97
2019-04-11T04:10:09.173Z,1.89
2019-04-11T04:11:08.367Z,1.92
2019-04-11T04:12:07.175Z,1.88
2019-04-11T04:13:13.282Z,1.89
2019-04-11T04:14:08.209Z,1.88
2019-04-11T04:15:09.080Z,1.98
2019-04-11T04:16:17.654Z,2.03
2019-04-11T04:17:10.087Z,1.84
2019-04-11T04:18:07.960Z,1.88
2019-04-11T04:19:10.688Z,1.98
2019-04-11T04:20:08.771Z,1.93
2019-04-11T04:21:09.193Z,1.89
2019-04-11T04:22:07.255Z,1.86
2019-04-11T04:23:07.610Z,1.86
2019-04-11T04:24:08.508Z,1.85
2019-04-11T04:25:08.122Z,1.86
2019-04-11T04:26:08.483Z,1.84
2019-04-11T04:27:07.674Z,1.85
2019-04-11T04:28:07.454Z,1.85
2019-04-11T04:29:07.504Z,1.86
2019-04-11T04:30:08.431Z,1.86
2019-04-11T04:31:07.479Z,1.82
2019-04-11T04:32:07.856Z,1.84
2019-04-11T04:33:07.155Z,1.86
2019-04-11T04:34:07.264Z,1.85
2019-04-11T04:35:10.175Z,1.89
2019-04-11T04:36:10.097Z,1.81
2019-04-11T04:37:07.901Z,1.82
2019-04-11T04:38:07.406Z,1.84
2019-04-11T04:39:06.435Z,1.92
2019-04-11T04:40:23.843Z,1.89
2019-04-11T04:41:20.024Z,1.98
2019-04-11T04:42:17.401Z,2.05
2019-04-11T04:43:09.622Z,2.04
2019-04-11T04:44:06.585Z,1.95
2019-04-11T04:45:07.913Z,1.97
2019-04-11T04:46:23.518Z,1.97
2019-04-11T04:47:18.045Z,1.97
2019-04-11T04:48:11.537Z,2.00
2019-04-11T04:49:09.014Z,2.05
2019-04-11T04:50:06.526Z,2.00
2019-04-11T04:51:09.163Z,2.07
2019-04-11T04:52:09.499Z,1.98
2019-04-11T04:53:07.350Z,2.03
2019-04-11T04:54:07.976Z,1.97
2019-04-11T04:55:06.317Z,1.95
2019-04-11T04:56:06.767Z,1.95
2019-04-11T04:57:08.572Z,1.95
2019-04-11T04:58:07.222Z,2.01
2019-04-11T04:59:07.085Z,2.04
2019-04-11T05:00:07.137Z,2.08
2019-04-11T05:01:07.009Z,2.07
2019-04-11T05:02:08.224Z,2.16
2019-04-11T05:03:07.764Z,2.19
2019-04-11T05:04:06.818Z,2.15
2019-04-11T05:05:06.404Z,2.16
2019-04-11T05:06:07.625Z,2.16
2019-04-11T05:07:07.331Z,2.14
2019-04-11T05:08:06.338Z,2.16
2019-04-11T05:09:06.579Z,2.05
2019-04-11T05:10:08.311Z,2.14
2019-04-11T05:11:07.510Z,2.16
2019-04-11T05:12:06.147Z,2.25
2019-04-11T05:13:07.624Z,2.21
2019-04-11T05:14:07.218Z,2.14
2019-04-11T05:15:06.043Z,2.30
2019-04-11T05:16:16.095Z,2.32
2019-04-11T05:17:07.018Z,2.39
2019-04-11T05:18:06.279Z,2.44
2019-04-11T05:19:06.595Z,2.43
2019-04-11T05:20:06.941Z,2.43
2019-04-11T05:21:06.027Z,2.44
2019-04-11T05:22:06.514Z,2.54
2019-04-11T05:23:06.335Z,2.54
2019-04-11T05:24:06.250Z,2.65
2019-04-11T05:25:06.723Z,2.72
2019-04-11T05:26:06.846Z,2.73
2019-04-11T05:27:06.248Z,2.77
2019-04-11T05:28:06.518Z,2.77
2019-04-11T05:29:05.898Z,2.85
2019-04-11T05:30:06.976Z,2.94
2019-04-11T05:31:06.135Z,3.05
2019-04-11T05:32:05.863Z,3.12
2019-04-11T05:33:06.037Z,3.19
2019-04-11T05:34:05.848Z,3.31
2019-04-11T05:35:06.912Z,3.30
2019-04-11T05:36:06.085Z,3.21
2019-04-11T05:37:06.892Z,3.29
2019-04-11T05:38:05.815Z,3.29
2019-04-11T05:39:06.638Z,3.40
2019-04-11T05:40:05.766Z,3.50
2019-04-11T05:41:09.664Z,3.43
2019-04-11T05:42:07.154Z,3.46
2019-04-11T05:43:06.007Z,3.48
2019-04-11T05:44:09.962Z,3.40
2019-04-11T05:45:11.657Z,3.64
2019-04-11T05:46:23.062Z,3.67
2019-04-11T05:47:06.898Z,3.77
2019-04-11T05:48:05.681Z,3.88
2019-04-11T05:49:05.679Z,3.76
2019-04-11T05:50:09.232Z,3.81
2019-04-11T05:51:06.887Z,3.78
2019-04-11T05:52:06.073Z,3.91
2019-04-11T05:53:05.817Z,4.09
2019-04-11T05:54:07.576Z,4.25
2019-04-11T05:55:08.267Z,4.52
2019-04-11T05:56:07.098Z,4.46
2019-04-11T05:57:05.571Z,4.71
2019-04-11T05:58:08.530Z,4.82
2019-04-11T05:59:07.390Z,4.94
2019-04-11T06:00:05.629Z,4.98
2019-04-11T06:01:05.538Z,5.23
2019-04-11T06:02:07.682Z,5.33
2019-04-11T06:03:05.841Z,5.56
2019-04-11T06:04:05.942Z,5.58
2019-04-11T06:05:06.759Z,5.64
2019-04-11T06:06:06.547Z,5.90
2019-04-11T06:07:07.878Z,5.95
2019-04-11T06:08:06.394Z,6.06
2019-04-11T06:09:07.730Z,6.36
2019-04-11T06:10:08.484Z,6.44
2019-04-11T06:11:06.253Z,6.39
2019-04-11T06:12:05.428Z,6.41
2019-04-11T06:13:05.406Z,6.20
2019-04-11T06:14:07.042Z,6.39
2019-04-11T06:15:05.960Z,6.49
2019-04-11T06:16:06.352Z,6.59
2019-04-11T06:17:05.353Z,6.80
2019-04-11T06:18:05.350Z,6.71
2019-04-11T06:19:06.015Z,6.68
2019-04-11T06:20:06.123Z,6.74
2019-04-11T06:21:05.305Z,7.07
2019-04-11T06:22:06.557Z,7.15
2019-04-11T06:23:06.577Z,7.11
2019-04-11T06:24:05.296Z,7.13
2019-04-11T06:25:06.235Z,7.41
2019-04-11T06:26:06.660Z,7.11
2019-04-11T06:27:06.355Z,7.18
2019-04-11T06:28:06.216Z,7.47
2019-04-11T06:29:15.446Z,7.62
2019-04-11T06:30:07.392Z,7.67
2019-04-11T06:31:06.062Z,7.80
2019-04-11T06:32:05.683Z,7.72
2019-04-11T06:33:05.184Z,7.41
2019-04-11T06:34:05.178Z,7.23
2019-04-11T06:35:06.113Z,7.00
2019-04-11T06:36:05.167Z,7.26
2019-04-11T06:37:05.631Z,7.29
2019-04-11T06:38:06.065Z,7.26
2019-04-11T06:39:05.217Z,7.48
2019-04-11T06:40:05.103Z,7.08
2019-04-11T06:41:06.172Z,7.10
2019-04-11T06:42:05.948Z,6.68
2019-04-11T06:43:05.089Z,6.70
2019-04-11T06:44:05.074Z,6.86
2019-04-11T06:45:06.055Z,6.82
2019-04-11T06:46:05.061Z,6.89
2019-04-11T06:47:05.376Z,7.13
2019-04-11T06:48:05.257Z,7.25
2019-04-11T06:49:05.003Z,7.40
2019-04-11T06:50:05.020Z,7.44
2019-04-11T06:51:06.000Z,7.56
2019-04-11T06:52:04.971Z,7.55
2019-04-11T06:53:04.966Z,7.08
2019-04-11T06:54:04.946Z,7.43
2019-04-11T06:55:04.966Z,7.37
2019-04-11T06:56:04.921Z,7.37
2019-04-11T06:57:05.526Z,7.69
2019-04-11T06:58:04.907Z,7.70
2019-04-11T06:59:04.893Z,8.01
2019-04-11T07:00:05.227Z,8.09
2019-04-11T07:01:05.482Z,7.84
2019-04-11T07:02:13.373Z,7.81
2019-04-11T07:03:17.470Z,7.78
2019-04-11T07:04:06.018Z,8.01
2019-04-11T07:05:04.846Z,8.18
2019-04-11T07:06:05.037Z,8.39
2019-04-11T07:07:04.807Z,8.72
2019-04-11T07:08:05.526Z,8.38
2019-04-11T07:09:05.524Z,8.11
2019-04-11T07:10:06.079Z,8.11
2019-04-11T07:11:04.763Z,8.06
2019-04-11T07:12:05.598Z,7.83
2019-04-11T07:13:05.579Z,7.70
2019-04-11T07:14:04.722Z,8.02
2019-04-11T07:15:04.736Z,7.83
2019-04-11T07:16:04.775Z,8.09
2019-04-11T07:17:07.493Z,8.26
2019-04-11T07:18:07.371Z,8.64
2019-04-11T07:19:04.940Z,8.79
2019-04-11T07:20:04.672Z,8.92
2019-04-11T07:21:04.656Z,9.12
2019-04-11T07:22:04.661Z,9.24
2019-04-11T07:23:05.811Z,9.08
2019-04-11T07:24:05.365Z,9.31
2019-04-11T07:25:04.620Z,9.03
2019-04-11T07:26:04.600Z,8.97
2019-04-11T07:27:04.605Z,8.97
2019-04-11T07:28:05.611Z,8.90
2019-04-11T07:29:04.680Z,8.53
2019-04-11T07:30:05.244Z,8.44
2019-04-11T07:31:04.581Z,8.42
2019-04-11T07:32:04.871Z,8.69
2019-04-11T07:33:04.541Z,8.32
2019-04-11T07:34:04.500Z,8.31
2019-04-11T07:35:04.875Z,8.90
2019-04-11T07:36:04.484Z,9.09
2019-04-11T07:37:04.688Z,9.18
2019-04-11T07:38:05.019Z,8.90
2019-04-11T07:39:05.566Z,8.95
2019-04-11T07:40:05.871Z,9.08
2019-04-11T07:41:04.423Z,9.47
2019-04-11T07:42:04.701Z,9.62
2019-04-11T07:43:08.829Z,9.13
2019-04-11T07:44:06.405Z,9.24
2019-04-11T07:45:04.398Z,9.13
2019-04-11T07:46:04.667Z,9.03
2019-04-11T07:47:13.686Z,8.93
2019-04-11T07:48:07.107Z,9.02
2019-04-11T07:49:04.332Z,9.48
2019-04-11T07:50:04.334Z,10.09
2019-04-11T07:51:04.305Z,9.59
2019-04-11T07:52:04.655Z,9.51
2019-04-11T07:53:04.994Z,9.54
2019-04-11T07:54:04.834Z,9.49
2019-04-11T07:55:04.667Z,9.69
2019-04-11T07:56:05.092Z,9.88
2019-04-11T07:57:04.316Z,10.23
2019-04-11T07:58:04.374Z,10.05
2019-04-11T07:59:05.105Z,10.00
2019-04-11T08:00:04.217Z,10.00
2019-04-11T08:01:04.199Z,10.38
2019-04-11T08:02:04.179Z,10.48
2019-04-11T08:03:04.571Z,10.17
2019-04-11T08:04:04.158Z,10.39
2019-04-11T08:05:04.501Z,10.00
2019-04-11T08:06:05.195Z,10.10
2019-04-11T08:07:04.438Z,10.13
2019-04-11T08:08:06.270Z,10.18
2019-04-11T08:09:05.031Z,10.07
2019-04-11T08:10:04.114Z,10.53
2019-04-11T08:11:04.088Z,10.49
2019-04-11T08:12:04.552Z,10.83
2019-04-11T08:13:04.059Z,10.89
2019-04-11T08:14:04.267Z,9.94
2019-04-11T08:15:04.899Z,9.91
2019-04-11T08:16:04.369Z,10.43
2019-04-11T08:17:04.019Z,10.39
2019-04-11T08:18:04.083Z,10.68
2019-04-11T08:19:04.005Z,10.25
2019-04-11T08:20:05.001Z,10.20
2019-04-11T08:21:03.992Z,10.71
2019-04-11T08:22:03.957Z,11.10
2019-04-11T08:23:03.961Z,10.58
2019-04-11T08:24:04.463Z,10.71
2019-04-11T08:25:05.032Z,11.00
2019-04-11T08:26:04.056Z,11.40
2019-04-11T08:27:03.971Z,10.83
2019-04-11T08:28:06.107Z,11.08
2019-04-11T08:29:09.006Z,11.31
2019-04-11T08:30:04.867Z,11.07
2019-04-11T08:31:03.876Z,11.41
2019-04-11T08:32:04.635Z,11.89
2019-04-11T08:33:04.515Z,12.18
2019-04-11T08:34:04.878Z,12.00
2019-04-11T08:35:04.003Z,11.56
2019-04-11T08:36:03.813Z,11.16
2019-04-11T08:37:03.790Z,11.38
2019-04-11T08:38:04.526Z,11.65
2019-04-11T08:39:04.771Z,12.23
2019-04-11T08:40:03.957Z,12.70
2019-04-11T08:41:03.983Z,12.30
2019-04-11T08:42:03.729Z,12.21
2019-04-11T08:43:04.674Z,12.72
2019-04-11T08:44:03.714Z,12.75
2019-04-11T08:45:04.077Z,12.83
2019-04-11T08:46:04.669Z,12.51
2019-04-11T08:47:04.413Z,12.26
2019-04-11T08:48:04.494Z,12.26
2019-04-11T08:49:03.735Z,12.30
2019-04-11T08:50:03.923Z,12.17
2019-04-11T08:51:03.647Z,12.08
2019-04-11T08:52:03.617Z,12.50
2019-04-11T08:53:04.574Z,12.40
2019-04-11T08:54:04.842Z,12.45
2019-04-11T08:55:04.203Z,12.73
2019-04-11T08:56:04.341Z,13.02
2019-04-11T08:57:03.564Z,13.09
2019-04-11T08:58:04.423Z,13.12
2019-04-11T08:59:03.546Z,13.57
2019-04-11T09:00:04.149Z,13.47
2019-04-11T09:01:03.550Z,13.45
2019-04-11T09:02:04.648Z,13.45
2019-04-11T09:03:03.503Z,13.37
2019-04-11T09:04:07.316Z,13.27
2019-04-11T09:05:12.022Z,13.42
2019-04-11T09:06:04.484Z,13.40
2019-04-11T09:07:03.459Z,13.28
2019-04-11T09:08:03.442Z,13.11
2019-04-11T09:09:03.455Z,13.23
2019-04-11T09:10:04.109Z,12.86
2019-04-11T09:11:04.486Z,13.21
2019-04-11T09:12:04.431Z,13.23
2019-04-11T09:13:03.391Z,12.33
2019-04-11T09:14:03.926Z,12.80
2019-04-11T09:15:04.438Z,12.70
2019-04-11T09:16:03.528Z,12.76
2019-04-11T09:17:03.856Z,12.26
2019-04-11T09:18:06.360Z,12.40
2019-04-11T09:19:04.331Z,12.90
2019-04-11T09:20:03.360Z,13.01
2019-04-11T09:21:04.298Z,13.24
2019-04-11T09:22:03.287Z,13.16
2019-04-11T09:23:03.779Z,12.84
2019-04-11T09:24:03.270Z,12.57
2019-04-11T09:25:03.445Z,12.28
2019-04-11T09:26:03.613Z,12.76
2019-04-11T09:27:04.443Z,12.91
2019-04-11T09:28:03.242Z,12.98
2019-04-11T09:29:03.961Z,13.31
2019-04-11T09:30:04.325Z,13.09
2019-04-11T09:31:05.170Z,12.76
2019-04-11T09:32:04.304Z,13.05
2019-04-11T09:33:03.173Z,13.49
2019-04-11T09:34:03.725Z,14.08
2019-04-11T09:35:03.146Z,12.90
2019-04-11T09:36:03.835Z,12.54
2019-04-11T09:37:03.259Z,12.18
2019-04-11T09:38:04.266Z,12.75
2019-04-11T09:39:03.111Z,13.03
2019-04-11T09:40:03.744Z,12.37
2019-04-11T09:41:03.984Z,11.45
2019-04-11T09:42:03.115Z,12.14
2019-04-11T09:43:03.873Z,12.86
2019-04-11T09:44:03.043Z,13.08
2019-04-11T09:45:03.558Z,12.94
2019-04-11T09:46:03.020Z,13.09
2019-04-11T09:47:03.424Z,13.27
2019-04-11T09:48:12.613Z,13.06
2019-04-11T09:49:04.491Z,13.26
2019-04-11T09:50:04.236Z,13.26
2019-04-11T09:51:03.025Z,13.70
2019-04-11T09:52:02.976Z,13.01
2019-04-11T09:53:03.638Z,14.16
2019-04-11T09:54:03.591Z,13.75
2019-04-11T09:55:02.922Z,12.62
2019-04-11T09:56:02.913Z,11.81
2019-04-11T09:57:02.909Z,11.68
2019-04-11T09:58:03.062Z,11.96
2019-04-11T09:59:02.884Z,12.50
2019-04-11T10:00:03.843Z,12.69
2019-04-11T10:01:03.766Z,11.52
2019-04-11T10:02:02.862Z,11.18
2019-04-11T10:03:02.945Z,11.10
2019-04-11T10:04:03.682Z,11.16
2019-04-11T10:05:02.868Z,11.02
2019-04-11T10:06:03.032Z,12.03
2019-04-11T10:07:03.438Z,12.98
2019-04-11T10:08:02.779Z,13.73
2019-04-11T10:09:03.776Z,12.48
2019-04-11T10:10:02.786Z,12.07
2019-04-11T10:11:03.721Z,11.63
2019-04-11T10:12:02.750Z,11.16
2019-04-11T10:13:02.730Z,10.84
2019-04-11T10:14:02.715Z,10.72
2019-04-11T10:15:03.147Z,10.42
2019-04-11T10:16:03.703Z,10.28
2019-04-11T10:17:02.691Z,11.83
2019-04-11T10:18:03.141Z,12.40
2019-04-11T10:19:03.385Z,12.25
2019-04-11T10:20:02.939Z,12.05
2019-04-11T10:21:02.634Z,11.96
2019-04-11T10:22:02.850Z,11.86
2019-04-11T10:23:03.309Z,12.20
2019-04-11T10:24:02.599Z,12.15
2019-04-11T10:25:03.232Z,11.74
2019-04-11T10:26:03.550Z,12.54
2019-04-11T10:27:02.708Z,13.26
2019-04-11T10:28:02.822Z,13.23
2019-04-11T10:29:02.540Z,12.48
2019-04-11T10:30:02.535Z,11.89
2019-04-11T10:31:02.519Z,11.99
2019-04-11T10:32:03.270Z,11.70
2019-04-11T10:33:02.495Z,11.26
2019-04-11T10:34:03.266Z,11.05
2019-04-11T10:35:02.476Z,10.92
2019-04-11T10:36:03.016Z,10.84
2019-04-11T10:37:03.502Z,10.62
2019-04-11T10:38:02.452Z,10.21
2019-04-11T10:39:02.772Z,10.18
2019-04-11T10:40:02.427Z,10.21
2019-04-11T10:41:02.441Z,10.21
2019-04-11T10:42:02.412Z,10.03
2019-04-11T10:43:02.552Z,10.07
2019-04-11T10:44:02.432Z,9.99
2019-04-11T10:45:02.741Z,10.03
2019-04-11T10:46:02.835Z,9.80
2019-04-11T10:47:02.355Z,9.82
2019-04-11T10:48:03.303Z,9.62
2019-04-11T10:49:03.411Z,9.59
2019-04-11T10:50:03.128Z,9.49
2019-04-11T10:51:02.359Z,9.36
2019-04-11T10:52:02.485Z,9.16
2019-04-11T10:53:02.693Z,9.15
2019-04-11T10:54:04.143Z,9.37
2019-04-11T10:55:03.092Z,9.44
2019-04-11T10:56:02.249Z,9.42
2019-04-11T10:57:03.369Z,9.37
2019-04-11T10:58:02.631Z,9.29
2019-04-11T10:59:02.207Z,9.40
2019-04-11T11:00:03.133Z,9.44
2019-04-11T11:01:02.188Z,9.42
2019-04-11T11:02:02.248Z,9.48
2019-04-11T11:03:02.173Z,9.52
2019-04-11T11:04:03.300Z,9.58
2019-04-11T11:05:03.160Z,9.66
2019-04-11T11:06:03.161Z,9.55
2019-04-11T11:07:02.406Z,9.56
2019-04-11T11:08:02.133Z,9.54
2019-04-11T11:09:02.104Z,9.51
2019-04-11T11:10:03.141Z,9.52
2019-04-11T11:11:02.076Z,9.33
2019-04-11T11:12:03.024Z,9.33
2019-04-11T11:13:02.079Z,9.40
2019-04-11T11:14:02.567Z,9.54
2019-04-11T11:15:03.147Z,9.51
2019-04-11T11:16:02.296Z,9.45
2019-04-11T11:17:02.391Z,9.45
2019-04-11T11:18:31.878Z,9.55
2019-04-11T11:19:29.934Z,9.45
2019-04-11T11:20:12.050Z,9.27
2019-04-11T11:21:05.489Z,9.37
2019-04-11T11:22:03.511Z,9.54
2019-04-11T11:23:05.791Z,9.64
2019-04-11T11:24:05.408Z,9.76
2019-04-11T11:25:02.930Z,9.81
2019-04-11T11:26:02.808Z,9.80
2019-04-11T11:27:04.084Z,9.67
2019-04-11T11:28:03.556Z,9.80
2019-04-11T11:29:07.107Z,9.49
2019-04-11T11:30:04.410Z,9.63
2019-04-11T11:31:03.134Z,9.63
2019-04-11T11:32:02.986Z,9.74
2019-04-11T11:33:02.264Z,9.84
2019-04-11T11:34:02.887Z,9.87
2019-04-11T11:35:03.304Z,9.95
2019-04-11T11:36:03.553Z,10.06
2019-04-11T11:37:02.795Z,9.95
2019-04-11T11:38:02.002Z,10.06
2019-04-11T11:39:02.502Z,9.87
2019-04-11T11:40:04.922Z,9.80
2019-04-11T11:41:03.819Z,9.97
2019-04-11T11:42:02.117Z,9.85
2019-04-11T11:43:03.052Z,9.85
2019-04-11T11:44:01.719Z,9.91
2019-04-11T11:45:03.806Z,10.02
2019-04-11T11:46:03.031Z,10.41
2019-04-11T11:47:03.433Z,10.43
2019-04-11T11:48:01.684Z,10.38
2019-04-11T11:49:02.782Z,10.24
2019-04-11T11:50:03.321Z,10.15
2019-04-11T11:51:01.644Z,10.30
2019-04-11T11:52:03.007Z,10.42
2019-04-11T11:53:04.852Z,10.21
2019-04-11T11:54:02.949Z,10.23
2019-04-11T11:55:02.191Z,10.20
2019-04-11T11:56:02.114Z,10.41
2019-04-11T11:57:02.370Z,10.68
2019-04-11T11:58:01.993Z,10.97
2019-04-11T11:59:02.752Z,10.41
2019-04-11T12:00:02.880Z,10.38
2019-04-11T12:01:05.888Z,10.62
2019-04-11T12:02:02.511Z,10.95
2019-04-11T12:03:02.373Z,10.83
2019-04-11T12:04:03.125Z,10.86
2019-04-11T12:05:02.583Z,11.00
2019-04-11T12:06:01.481Z,10.79
2019-04-11T12:07:03.731Z,10.77
2019-04-11T12:08:01.456Z,10.51
2019-04-11T12:09:02.501Z,10.76
2019-04-11T12:10:02.752Z,10.89
2019-04-11T12:11:01.892Z,10.77
2019-04-11T12:12:02.327Z,10.77
2019-04-11T12:13:05.848Z,10.58
2019-04-11T12:14:02.376Z,10.49
2019-04-11T12:15:01.513Z,10.76
2019-04-11T12:16:01.599Z,10.79
2019-04-11T12:17:05.071Z,10.95
2019-04-11T12:18:01.770Z,10.90
2019-04-11T12:19:02.525Z,10.87
2019-04-11T12:20:06.450Z,10.62
2019-04-11T12:21:03.182Z,10.51
2019-04-11T12:22:02.256Z,10.59
2019-04-11T12:23:01.301Z,10.90
2019-04-11T12:24:06.122Z,10.98
2019-04-11T12:25:02.966Z,10.94
2019-04-11T12:26:01.250Z,11.05
2019-04-11T12:27:02.281Z,11.00
2019-04-11T12:28:02.446Z,11.05
2019-04-11T12:29:01.743Z,11.23
2019-04-11T12:30:03.212Z,11.35
2019-04-11T12:31:03.728Z,11.37
2019-04-11T12:32:01.203Z,11.68
2019-04-11T12:33:01.434Z,12.35
2019-04-11T12:34:01.684Z,12.11
2019-04-11T12:35:02.177Z,12.84
2019-04-11T12:36:01.322Z,13.28
2019-04-11T12:37:02.173Z,13.11
2019-04-11T12:38:01.116Z,14.34
2019-04-11T12:39:01.122Z,14.62
2019-04-11T12:40:01.090Z,14.51
2019-04-11T12:41:01.073Z,13.73
2019-04-11T12:42:01.068Z,13.60
2019-04-11T12:43:01.050Z,13.75
2019-04-11T12:44:01.067Z,13.52
2019-04-11T12:45:01.035Z,14.13
2019-04-11T12:46:01.028Z,13.80
2019-04-11T12:47:01.008Z,14.93
2019-04-11T12:48:01.002Z,15.55
2019-04-11T12:49:01.004Z,14.92
2019-04-11T12:50:00.979Z,14.37
2019-04-11T12:51:00.967Z,15.35
2019-04-11T12:52:00.959Z,15.10
2019-04-11T12:53:00.942Z,14.79
2019-04-11T12:54:00.950Z,15.73
2019-04-11T12:55:00.925Z,15.65
2019-04-11T12:56:00.918Z,14.86
2019-04-11T12:57:00.902Z,13.61
2019-04-11T12:58:00.896Z,12.81
2019-04-11T12:59:00.890Z,12.05
2019-04-11T13:00:00.871Z,11.67
2019-04-11T13:01:00.873Z,11.86
2019-04-11T13:02:00.879Z,12.14
2019-04-11T13:03:00.842Z,12.83
2019-04-11T13:04:00.853Z,12.36
2019-04-11T13:05:00.809Z,12.76
2019-04-11T13:06:00.810Z,12.39
2019-04-11T13:07:00.785Z,12.18
2019-04-11T13:08:00.784Z,12.20
2019-04-11T13:09:00.794Z,12.28
2019-04-11T13:10:00.762Z,12.12
2019-04-11T13:11:00.742Z,11.91